Time;durP1;ratioP1;P1;durP2;ratioP2;P2;SDS_P1;SDS_P2;PMS_P1;PMS_P2;Temp;Humidity;BMP_temperature;BMP_pressure;BME280_temperature;BME280_humidity;BME280_pressure;Samples;Min_cycle;Max_cycle;Signal;HPM_P1;HPM_P2
2022/07/06 00:01:59;;;;;;;4.15;1.55;;;18.20;61.50;;;;;;2330889;57;21058;-84
2022/07/06 00:04:26;;;;;;;6.50;1.98;;;18.20;61.70;;;;;;2330280;57;21733;-84
2022/07/06 00:06:53;;;;;;;6.62;1.67;;;18.10;61.70;;;;;;2330841;57;21129;-84
2022/07/06 00:09:21;;;;;;;5.43;1.55;;;18.20;61.90;;;;;;2574640;54;21055;-84
2022/07/06 00:11:49;;;;;;;6.10;1.65;;;18.10;61.80;;;;;;2330807;57;21620;-84
2022/07/06 00:14:16;;;;;;;6.47;1.58;;;18.20;61.90;;;;;;2573411;53;21181;-84
2022/07/06 00:16:44;;;;;;;4.53;1.83;;;18.20;62.00;;;;;;2573862;54;21126;-84
2022/07/06 00:19:11;;;;;;;4.28;1.30;;;18.10;61.80;;;;;;2573447;54;21058;-85
2022/07/06 00:21:38;;;;;;;3.30;1.52;;;18.20;62.00;;;;;;2574113;53;21042;-84
2022/07/06 00:24:06;;;;;;;7.55;2.10;;;18.20;62.10;;;;;;2573761;53;21062;-83
2022/07/06 00:26:34;;;;;;;4.43;1.30;;;18.10;62.20;;;;;;2330609;57;21118;-84
2022/07/06 00:29:01;;;;;;;6.22;1.75;;;18.10;61.90;;;;;;2330698;57;21089;-84
2022/07/06 00:31:29;;;;;;;3.37;1.40;;;18.10;62.40;;;;;;2330435;57;21117;-84
2022/07/06 00:33:56;;;;;;;3.85;1.62;;;18.10;62.40;;;;;;2574430;53;21125;-84
2022/07/06 00:36:23;;;;;;;3.37;1.20;;;18.10;62.60;;;;;;2330748;57;21062;-83
2022/07/06 00:38:51;;;;;;;6.70;1.67;;;18.10;62.70;;;;;;2574375;54;21193;-85
2022/07/06 00:41:18;;;;;;;2.30;1.80;;;18.10;62.70;;;;;;2330693;57;21118;-84
2022/07/06 00:43:51;;;;;;;4.12;1.17;;;18.10;62.80;;;;;;2574554;54;21046;-84
2022/07/06 00:46:19;;;;;;;5.47;1.67;;;18.10;63.60;;;;;;2574448;54;21034;-85
2022/07/06 00:48:46;;;;;;;4.15;1.62;;;18.10;62.80;;;;;;2573715;53;21638;-84
2022/07/06 00:51:15;;;;;;;5.93;2.20;;;18.10;62.90;;;;;;2574226;53;21063;-84
2022/07/06 00:53:43;;;;;;;5.30;1.40;;;18.10;63.00;;;;;;2330711;57;21114;-84
2022/07/06 00:56:11;;;;;;;4.55;1.55;;;18.10;63.10;;;;;;2574086;54;21058;-84
2022/07/06 00:58:39;;;;;;;6.05;1.33;;;18.10;63.10;;;;;;2574355;54;21069;-84
2022/07/06 01:01:06;;;;;;;4.03;1.70;;;18.10;63.20;;;;;;2330473;57;21189;-83
2022/07/06 01:03:34;;;;;;;5.35;1.73;;;18.10;63.30;;;;;;2329644;57;21117;-83
2022/07/06 01:06:02;;;;;;;2.12;1.40;;;18.10;63.50;;;;;;2330456;57;21105;-84
2022/07/06 01:08:30;;;;;;;3.40;1.60;;;18.00;63.50;;;;;;2331243;57;21133;-84
2022/07/06 01:10:57;;;;;;;6.37;1.65;;;18.00;63.30;;;;;;2330796;57;21090;-84
2022/07/06 01:13:26;;;;;;;3.95;1.45;;;18.00;63.40;;;;;;2330908;57;21357;-84
2022/07/06 01:15:53;;;;;;;4.80;1.80;;;18.00;63.30;;;;;;2330201;57;21110;-83
2022/07/06 01:18:21;;;;;;;4.80;1.55;;;18.00;63.50;;;;;;2574571;53;21058;-84
2022/07/06 01:20:49;;;;;;;4.15;1.33;;;18.00;64.50;;;;;;2573975;53;21054;-83
2022/07/06 01:23:16;;;;;;;4.72;1.70;;;18.00;63.70;;;;;;2574069;54;21083;-84
2022/07/06 01:25:44;;;;;;;6.80;1.77;;;18.00;64.00;;;;;;2573491;54;21060;-83
2022/07/06 01:28:11;;;;;;;3.00;1.73;;;17.90;63.60;;;;;;2573492;54;21118;-85
2022/07/06 01:30:38;;;;;;;3.87;1.45;;;18.00;63.70;;;;;;2573435;53;21205;-84
2022/07/06 01:33:06;;;;;;;5.03;1.80;;;18.00;63.70;;;;;;2573710;54;21121;-84
2022/07/06 01:35:35;;;;;;;4.53;1.67;;;18.00;63.50;;;;;;2330320;57;21086;-84
2022/07/06 01:38:03;;;;;;;2.67;1.33;;;17.90;63.60;;;;;;2574125;54;21604;-84
2022/07/06 01:40:30;;;;;;;5.45;1.75;;;17.90;63.70;;;;;;2574384;53;21062;-84
2022/07/06 01:42:58;;;;;;;3.22;1.30;;;17.80;63.50;;;;;;2330800;57;21109;-84
2022/07/06 01:45:26;;;;;;;3.50;1.50;;;17.90;63.60;;;;;;2573206;54;21549;-84
2022/07/06 01:47:53;;;;;;;3.35;1.40;;;17.80;63.50;;;;;;2331104;57;21050;-84
2022/07/06 01:50:20;;;;;;;4.37;1.65;;;17.80;63.50;;;;;;2330923;57;21431;-83
2022/07/06 01:52:48;;;;;;;2.72;1.58;;;17.80;63.50;;;;;;2330800;57;21599;-84
2022/07/06 01:55:15;;;;;;;4.35;2.00;;;17.80;63.60;;;;;;2331353;57;21070;-84
2022/07/06 01:57:43;;;;;;;5.57;1.75;;;17.80;63.50;;;;;;2574198;54;21093;-84
2022/07/06 02:00:11;;;;;;;7.57;1.80;;;17.80;63.50;;;;;;2330325;57;21049;-83
2022/07/06 02:02:39;;;;;;;9.88;1.75;;;17.80;63.50;;;;;;2330253;57;21122;-84
2022/07/06 02:05:07;;;;;;;5.35;1.75;;;17.80;63.50;;;;;;2573679;53;21058;-85
2022/07/06 02:07:35;;;;;;;5.00;1.70;;;17.80;63.50;;;;;;2330842;57;21065;-84
2022/07/06 02:10:03;;;;;;;3.47;1.52;;;17.80;63.50;;;;;;2330793;57;21133;-84
2022/07/06 02:12:30;;;;;;;6.80;1.67;;;17.80;63.50;;;;;;2573543;53;21062;-84
2022/07/06 02:14:57;;;;;;;7.50;1.90;;;17.80;63.70;;;;;;2573855;54;21101;-84
2022/07/06 02:17:25;;;;;;;7.47;1.80;;;17.80;64.10;;;;;;2573777;54;21709;-85
2022/07/06 02:19:53;;;;;;;3.10;1.27;;;17.80;64.00;;;;;;2330215;57;21671;-83
2022/07/06 02:22:20;;;;;;;3.60;1.60;;;17.70;63.80;;;;;;2331198;57;21566;-83
2022/07/06 02:24:47;;;;;;;8.20;1.87;;;17.60;64.20;;;;;;2329618;57;21130;-83
2022/07/06 02:27:15;;;;;;;5.40;1.60;;;17.50;64.60;;;;;;2574536;53;21633;-84
2022/07/06 02:29:42;;;;;;;3.42;1.10;;;17.40;65.00;;;;;;2574608;54;21048;-85
2022/07/06 02:32:10;;;;;;;2.45;1.10;;;17.30;64.00;;;;;;2330987;57;21050;-83
2022/07/06 02:34:37;;;;;;;2.28;0.90;;;17.20;63.70;;;;;;2574651;53;21334;-82
2022/07/06 02:37:06;;;;;;;3.55;1.00;;;17.20;63.50;;;;;;2330116;57;21038;-82
2022/07/06 02:39:33;;;;;;;1.73;0.88;;;17.10;63.30;;;;;;2330736;57;21618;-83
2022/07/06 02:42:01;;;;;;;2.70;0.80;;;17.10;63.00;;;;;;2573474;53;21585;-84
2022/07/06 02:44:28;;;;;;;2.87;1.02;;;17.10;63.10;;;;;;2330987;57;21062;-83
2022/07/06 02:46:56;;;;;;;3.05;0.80;;;17.10;62.90;;;;;;2330641;57;21125;-83
2022/07/06 02:49:23;;;;;;;1.15;0.70;;;17.10;62.60;;;;;;2574529;54;21042;-83
2022/07/06 02:51:50;;;;;;;3.25;0.77;;;17.20;62.50;;;;;;2573499;53;21069;-83
2022/07/06 02:54:18;;;;;;;1.40;0.77;;;17.20;61.80;;;;;;2574314;54;21117;-84
2022/07/06 02:56:50;;;;;;;1.77;0.90;;;17.20;61.90;;;;;;2573472;53;21747;-83
2022/07/06 02:59:18;;;;;;;1.47;0.90;;;17.30;61.20;;;;;;2574514;54;21086;-84
2022/07/06 03:01:45;;;;;;;2.67;0.75;;;17.30;61.70;;;;;;2330469;57;21576;-83
2022/07/06 03:04:13;;;;;;;2.92;0.70;;;17.30;61.80;;;;;;2331255;57;21098;-85
2022/07/06 03:06:40;;;;;;;2.35;1.08;;;17.30;61.90;;;;;;2573140;54;21137;-83
2022/07/06 03:09:07;;;;;;;3.80;1.20;;;17.30;62.00;;;;;;2574060;54;21094;-84
2022/07/06 03:11:36;;;;;;;2.78;0.90;;;17.30;62.20;;;;;;2573921;53;21594;-84
2022/07/06 03:14:03;;;;;;;2.67;1.40;;;17.30;62.20;;;;;;2331378;57;21150;-84
2022/07/06 03:16:31;;;;;;;2.22;0.70;;;17.30;62.10;;;;;;2573959;53;21146;-84
2022/07/06 03:18:58;;;;;;;2.80;0.75;;;17.30;62.10;;;;;;2573651;54;21079;-84
2022/07/06 03:21:26;;;;;;;5.05;1.45;;;17.30;62.50;;;;;;2573838;53;21134;-84
2022/07/06 03:23:54;;;;;;;3.20;1.02;;;17.30;62.60;;;;;;2330939;57;21046;-84
2022/07/06 03:26:21;;;;;;;2.35;1.25;;;17.30;62.80;;;;;;2573702;54;21251;-82
2022/07/06 03:28:48;;;;;;;6.05;1.25;;;17.30;63.00;;;;;;2331235;57;21081;-84
2022/07/06 03:31:16;;;;;;;4.15;0.95;;;17.30;62.90;;;;;;2330760;57;21117;-85
2022/07/06 03:33:43;;;;;;;4.00;1.42;;;17.40;63.10;;;;;;2330448;57;21126;-84
2022/07/06 03:36:11;;;;;;;4.75;1.30;;;17.40;63.10;;;;;;2329695;57;21074;-84
2022/07/06 03:38:38;;;;;;;2.47;1.23;;;17.40;63.30;;;;;;2573957;53;21042;-85
2022/07/06 03:41:06;;;;;;;2.60;1.30;;;17.40;63.60;;;;;;2331065;57;21058;-84
2022/07/06 03:43:33;;;;;;;2.33;1.00;;;17.40;64.30;;;;;;2330733;57;21110;-84
2022/07/06 03:46:01;;;;;;;4.68;1.23;;;17.40;64.10;;;;;;2330236;57;21645;-84
2022/07/06 03:48:28;;;;;;;3.10;1.00;;;17.40;64.30;;;;;;2574177;54;21534;-85
2022/07/06 03:50:56;;;;;;;4.78;1.15;;;17.40;64.50;;;;;;2574114;53;21117;-83
2022/07/06 03:53:24;;;;;;;4.15;1.60;;;17.40;64.70;;;;;;2330388;57;21052;-84
2022/07/06 03:58:39;;;;;;;2.70;1.37;;;17.40;64.90;;;;;;2573433;53;21149;-84
2022/07/06 04:01:06;;;;;;;2.50;0.98;;;17.40;64.80;;;;;;2574351;53;21062;-84
2022/07/06 04:03:33;;;;;;;4.78;1.35;;;17.40;65.10;;;;;;2574482;54;21118;-85
2022/07/06 04:06:01;;;;;;;3.17;1.25;;;17.40;65.10;;;;;;2331243;57;21058;-85
2022/07/06 04:08:28;;;;;;;2.85;1.30;;;17.40;64.90;;;;;;2574418;54;21046;-84
2022/07/06 04:10:56;;;;;;;1.73;1.10;;;17.50;64.70;;;;;;2331865;57;21042;-83
2022/07/06 04:13:25;;;;;;;2.72;1.10;;;17.50;64.70;;;;;;2331009;57;21181;-83
2022/07/06 04:15:52;;;;;;;3.28;1.10;;;17.50;64.70;;;;;;2574316;54;21117;-83
2022/07/06 04:18:20;;;;;;;2.33;1.42;;;17.50;64.80;;;;;;2574876;54;21090;-84
2022/07/06 04:21:07;;;;;;;4.12;1.30;;;17.50;64.70;;;;;;2574744;53;22244;-83
2022/07/06 04:23:34;;;;;;;3.15;1.20;;;17.50;64.80;;;;;;2223700;60;21153;-73
2022/07/06 04:26:02;;;;;;;4.87;1.40;;;17.60;64.40;;;;;;2222027;60;21145;-74
2022/07/06 04:28:29;;;;;;;3.97;1.23;;;17.50;64.60;;;;;;2223480;60;21090;-73
2022/07/06 04:30:57;;;;;;;4.32;1.30;;;17.50;64.60;;;;;;2202931;60;21107;-73
2022/07/06 04:33:24;;;;;;;2.83;1.40;;;17.50;64.50;;;;;;2199690;61;21167;-74
2022/07/06 04:35:52;;;;;;;5.85;1.60;;;17.50;64.80;;;;;;2199027;61;21731;-74
2022/07/06 04:38:20;;;;;;;4.55;1.35;;;17.50;64.90;;;;;;2200163;61;21642;-73
2022/07/06 04:40:47;;;;;;;2.62;1.23;;;17.40;65.20;;;;;;2199375;61;21168;-73
2022/07/06 04:43:14;;;;;;;3.87;1.30;;;17.40;65.20;;;;;;2199983;61;21160;-73
2022/07/06 04:45:42;;;;;;;5.30;1.30;;;17.40;65.60;;;;;;2199593;61;21096;-74
2022/07/06 04:48:09;;;;;;;3.55;1.30;;;17.50;65.70;;;;;;2199412;61;21081;-73
2022/07/06 04:50:37;;;;;;;3.90;1.20;;;17.50;65.50;;;;;;2199313;61;21637;-74
2022/07/06 04:53:04;;;;;;;3.65;1.30;;;17.50;64.90;;;;;;2199372;61;21096;-74
2022/07/06 04:55:33;;;;;;;5.32;1.30;;;17.50;64.70;;;;;;2199625;61;21165;-73
2022/07/06 04:58:00;;;;;;;3.42;1.40;;;17.50;64.70;;;;;;2199934;61;21092;-74
2022/07/06 05:03:03;;;;;;;6.03;1.48;;;17.50;64.60;;;;;;2335410;57;28219;-74
2022/07/06 05:05:31;;;;;;;2.75;1.10;;;17.30;67.70;;;;;;2344953;57;21149;-74
2022/07/06 05:07:58;;;;;;;3.92;1.30;;;17.40;66.80;;;;;;2345816;57;21115;-74
2022/07/06 05:10:26;;;;;;;4.70;1.20;;;17.50;66.60;;;;;;2363623;56;21059;-74
2022/07/06 05:12:55;;;;;;;2.65;1.33;;;17.50;66.30;;;;;;2373393;56;21090;-74
2022/07/06 05:15:22;;;;;;;5.90;1.60;;;17.50;66.50;;;;;;2372017;56;21173;-74
2022/07/06 05:17:50;;;;;;;4.40;1.50;;;17.50;66.70;;;;;;2372685;56;21039;-73
2022/07/06 05:20:17;;;;;;;2.53;1.20;;;17.50;66.60;;;;;;2373117;56;21612;-72
2022/07/06 05:22:45;;;;;;;3.53;1.15;;;17.50;66.70;;;;;;2373214;56;21117;-74
2022/07/06 05:25:12;;;;;;;4.45;1.40;;;17.50;66.90;;;;;;2373642;56;21039;-74
2022/07/06 05:27:40;;;;;;;2.70;1.80;;;17.50;67.00;;;;;;2373769;56;21043;-74
2022/07/06 05:30:10;;;;;;;6.47;1.65;;;17.50;67.20;;;;;;2373919;56;21055;-73
2022/07/06 05:32:37;;;;;;;3.00;1.30;;;17.50;67.10;;;;;;2373648;56;21107;-74
2022/07/06 05:35:07;;;;;;;5.93;1.30;;;17.50;66.40;;;;;;2373241;56;21545;-74
2022/07/06 05:37:34;;;;;;;4.62;1.30;;;17.50;66.30;;;;;;2373977;56;21051;-73
2022/07/06 05:40:02;;;;;;;8.40;1.58;;;17.50;66.40;;;;;;2373952;56;21086;-75
2022/07/06 05:42:29;;;;;;;4.78;1.58;;;17.40;67.00;;;;;;2373929;56;21051;-74
2022/07/06 05:44:57;;;;;;;2.80;1.48;;;17.40;67.70;;;;;;2373714;56;21055;-72
2022/07/06 05:50:14;;;;;;;6.03;1.27;;;17.40;68.10;;;;;;2373950;56;21023;-75
2022/07/06 05:52:43;;;;;;;5.50;1.73;;;17.40;68.50;;;;;;2374242;56;21109;-74
2022/07/06 05:55:12;;;;;;;5.35;1.92;;;17.40;68.90;;;;;;2374245;56;21101;-75
2022/07/06 05:57:40;;;;;;;6.93;2.42;;;17.30;69.20;;;;;;2373909;56;22147;-75
2022/07/06 06:00:10;;;;;;;3.37;1.30;;;17.40;69.50;;;;;;2374268;56;21090;-74
2022/07/06 06:02:39;;;;;;;2.62;1.20;;;17.40;69.40;;;;;;2373864;56;21621;-73
2022/07/06 06:05:10;;;;;;;3.58;1.40;;;17.50;69.50;;;;;;2373338;56;21098;-75
2022/07/06 06:07:38;;;;;;;6.47;2.50;;;17.50;69.90;;;;;;2373625;56;21051;-75
2022/07/06 06:10:08;;;;;;;5.70;1.42;;;17.50;70.20;;;;;;2373890;56;21600;-75
2022/07/06 06:12:36;;;;;;;4.12;1.52;;;17.60;70.10;;;;;;2373785;56;21482;-75
2022/07/06 06:15:05;;;;;;;4.20;1.67;;;17.70;69.60;;;;;;2373014;56;21055;-74
2022/07/06 06:17:33;;;;;;;6.25;2.17;;;17.70;69.30;;;;;;2372197;56;21517;-74
2022/07/06 06:20:00;;;;;;;3.87;1.17;;;17.80;68.90;;;;;;2373205;56;21063;-74
2022/07/06 06:22:28;;;;;;;3.37;1.37;;;17.80;69.20;;;;;;2372969;56;21055;-74
2022/07/06 06:24:55;;;;;;;4.15;1.27;;;17.80;69.00;;;;;;2372967;56;21047;-73
2022/07/06 06:27:23;;;;;;;6.65;1.80;;;17.90;69.10;;;;;;2372560;56;21051;-75
2022/07/06 06:29:50;;;;;;;5.65;1.20;;;17.90;69.00;;;;;;2372764;56;21537;-74
2022/07/06 06:32:18;;;;;;;3.42;1.10;;;17.90;69.20;;;;;;2372420;56;21110;-74
2022/07/06 06:34:45;;;;;;;3.12;1.30;;;18.00;69.10;;;;;;2372825;56;21082;-74
2022/07/06 06:37:13;;;;;;;2.75;1.30;;;18.10;69.20;;;;;;2372299;56;21545;-75
2022/07/06 06:39:40;;;;;;;5.93;1.52;;;18.10;68.60;;;;;;2372470;56;21059;-74
2022/07/06 06:42:08;;;;;;;5.00;1.20;;;18.10;68.70;;;;;;2372728;56;21043;-74
2022/07/06 06:44:36;;;;;;;4.93;1.70;;;18.10;68.60;;;;;;2373013;56;21031;-74
2022/07/06 06:47:03;;;;;;;5.93;1.30;;;18.10;68.00;;;;;;2372348;56;21531;-75
2022/07/06 06:49:31;;;;;;;6.57;1.70;;;18.10;68.30;;;;;;2372849;56;22215;-74
2022/07/06 06:51:58;;;;;;;2.42;1.15;;;18.10;68.20;;;;;;2372740;56;21043;-75
2022/07/06 06:54:26;;;;;;;4.20;1.58;;;18.10;67.90;;;;;;2372798;56;21097;-74
2022/07/06 06:56:53;;;;;;;3.33;1.10;;;18.10;67.90;;;;;;2372592;56;21580;-73
2022/07/06 06:59:21;;;;;;;3.60;1.30;;;18.20;68.10;;;;;;2372418;56;21039;-75
2022/07/06 07:01:48;;;;;;;6.35;2.17;;;18.30;67.60;;;;;;2372465;56;21070;-75
2022/07/06 07:04:16;;;;;;;5.57;1.30;;;18.30;67.10;;;;;;2372472;56;22245;-74
2022/07/06 07:06:44;;;;;;;4.37;1.12;;;18.30;67.10;;;;;;2372897;56;21170;-74
2022/07/06 07:09:11;;;;;;;6.53;1.23;;;18.30;67.10;;;;;;2372929;56;21043;-74
2022/07/06 07:11:38;;;;;;;5.62;1.42;;;18.30;67.20;;;;;;2372962;56;21114;-75
2022/07/06 07:14:06;;;;;;;4.47;1.92;;;18.40;66.90;;;;;;2373221;56;21079;-75
2022/07/06 07:16:33;;;;;;;3.83;1.27;;;18.40;67.00;;;;;;2372334;56;21059;-75
2022/07/06 07:19:01;;;;;;;5.30;1.67;;;18.50;67.00;;;;;;2372673;56;21040;-74
2022/07/06 07:21:28;;;;;;;4.00;1.27;;;18.50;66.10;;;;;;2624966;52;21043;-76
2022/07/06 07:23:56;;;;;;;4.75;1.25;;;18.50;66.10;;;;;;2372687;56;21106;-74
2022/07/06 07:26:23;;;;;;;3.47;1.25;;;18.50;65.50;;;;;;2372399;56;21055;-74
2022/07/06 07:28:51;;;;;;;4.28;0.98;;;18.50;65.10;;;;;;2372896;56;21047;-75
2022/07/06 07:31:18;;;;;;;6.28;1.73;;;18.50;65.40;;;;;;2625738;52;21039;-74
2022/07/06 07:33:45;;;;;;;3.90;0.75;;;18.60;64.70;;;;;;2372917;56;21054;-73
2022/07/06 07:36:13;;;;;;;1.23;0.90;;;18.60;64.30;;;;;;2372590;56;21051;-75
2022/07/06 07:38:41;;;;;;;4.47;1.23;;;18.70;64.50;;;;;;2625135;52;21031;-75
2022/07/06 07:41:11;;;;;;;6.53;1.37;;;18.80;64.20;;;;;;2371793;56;21094;-74
2022/07/06 07:43:38;;;;;;;3.62;1.45;;;18.90;63.70;;;;;;2372703;56;21051;-74
2022/07/06 07:46:08;;;;;;;5.18;1.52;;;18.90;63.80;;;;;;2372402;56;21039;-74
2022/07/06 07:48:36;;;;;;;4.47;1.00;;;18.90;64.20;;;;;;2625898;52;21620;-74
2022/07/06 07:51:03;;;;;;;2.03;1.02;;;18.90;64.10;;;;;;2372377;56;21043;-75
2022/07/06 07:53:31;;;;;;;4.55;1.40;;;18.90;63.40;;;;;;2372463;56;21554;-74
2022/07/06 07:55:58;;;;;;;3.67;1.40;;;18.90;64.00;;;;;;2371966;56;21398;-74
2022/07/06 07:58:26;;;;;;;3.83;1.45;;;18.90;63.70;;;;;;2372321;56;21598;-75
2022/07/06 08:00:54;;;;;;;5.50;1.77;;;19.00;63.90;;;;;;2372701;56;21043;-75
2022/07/06 08:03:21;;;;;;;4.45;1.15;;;18.90;63.60;;;;;;2372523;56;21106;-74
2022/07/06 08:05:50;;;;;;;5.10;1.58;;;18.90;64.00;;;;;;2372420;56;21063;-75
2022/07/06 08:08:18;;;;;;;4.32;1.27;;;18.90;63.40;;;;;;2372920;56;21297;-72
2022/07/06 08:10:45;;;;;;;5.10;1.48;;;19.00;63.40;;;;;;2372105;56;21062;-75
2022/07/06 08:13:14;;;;;;;4.12;1.70;;;19.00;63.30;;;;;;2372739;56;21360;-75
2022/07/06 08:15:42;;;;;;;3.17;1.15;;;19.00;62.60;;;;;;2372371;56;21043;-74
2022/07/06 08:18:10;;;;;;;11.38;1.62;;;19.10;62.60;;;;;;2372236;56;21047;-75
2022/07/06 08:20:38;;;;;;;4.72;1.40;;;19.10;62.20;;;;;;2372245;56;21047;-75
2022/07/06 08:23:05;;;;;;;6.97;1.40;;;19.20;62.00;;;;;;2372769;56;21059;-75
2022/07/06 08:25:33;;;;;;;7.50;1.12;;;19.20;61.90;;;;;;2371937;56;21054;-75
2022/07/06 08:28:01;;;;;;;5.25;1.60;;;19.20;61.70;;;;;;2372788;56;21039;-75
2022/07/06 08:30:31;;;;;;;4.62;1.35;;;19.20;61.60;;;;;;2372609;56;21616;-75
2022/07/06 08:32:58;;;;;;;6.85;1.70;;;19.20;61.60;;;;;;2372218;56;21154;-75
2022/07/06 08:35:26;;;;;;;3.33;1.15;;;19.20;61.70;;;;;;2372186;56;21055;-75
2022/07/06 08:37:53;;;;;;;3.12;1.23;;;19.20;61.50;;;;;;2372900;56;21186;-75
2022/07/06 08:40:22;;;;;;;3.83;1.20;;;19.30;61.10;;;;;;2372541;56;21054;-75
2022/07/06 08:42:54;;;;;;;4.05;1.45;;;19.30;61.10;;;;;;2372203;56;21043;-75
2022/07/06 08:45:23;;;;;;;2.50;1.27;;;19.30;60.90;;;;;;2372757;56;21403;-75
2022/07/06 08:47:52;;;;;;;3.30;1.45;;;19.40;60.70;;;;;;2372592;56;21609;-75
2022/07/06 08:50:20;;;;;;;3.75;1.00;;;19.50;60.50;;;;;;2372691;56;21553;-75
2022/07/06 08:52:49;;;;;;;5.70;1.30;;;19.50;60.80;;;;;;2372732;56;21047;-75
2022/07/06 08:55:17;;;;;;;2.30;1.00;;;19.60;60.20;;;;;;2371337;56;21107;-75
2022/07/06 08:57:47;;;;;;;4.53;0.95;;;19.70;59.20;;;;;;2372691;56;21031;-75
2022/07/06 09:00:16;;;;;;;3.87;1.30;;;19.70;59.30;;;;;;2625821;52;21424;-75
2022/07/06 09:02:44;;;;;;;5.55;1.35;;;19.80;59.10;;;;;;2372399;56;21051;-75
2022/07/06 09:05:14;;;;;;;3.50;1.00;;;19.90;59.30;;;;;;2372807;56;21106;-75
2022/07/06 09:07:43;;;;;;;4.10;1.05;;;19.90;58.70;;;;;;2372507;56;21036;-74
2022/07/06 09:10:11;;;;;;;2.42;0.90;;;20.00;58.50;;;;;;2373017;56;21114;-75
2022/07/06 09:12:38;;;;;;;3.55;1.00;;;20.00;58.00;;;;;;2371035;56;21611;-75
2022/07/06 09:15:07;;;;;;;3.08;0.95;;;20.00;57.70;;;;;;2372570;56;21327;-75
2022/07/06 09:17:39;;;;;;;2.37;0.82;;;20.00;56.90;;;;;;2371811;56;21047;-75
2022/07/06 09:20:09;;;;;;;2.95;0.73;;;19.90;56.80;;;;;;2372996;56;21581;-75
2022/07/06 09:22:37;;;;;;;3.60;1.20;;;19.90;57.00;;;;;;2372640;56;21098;-75
2022/07/06 09:25:07;;;;;;;3.05;0.90;;;19.80;58.10;;;;;;2372477;56;21106;-75
2022/07/06 09:27:39;;;;;;;1.67;0.73;;;19.60;58.70;;;;;;2372368;56;21051;-75
2022/07/06 09:30:09;;;;;;;2.17;0.73;;;19.50;59.10;;;;;;2372695;56;21545;-74
2022/07/06 09:32:41;;;;;;;3.15;0.95;;;19.50;59.50;;;;;;2372519;56;21058;-75
2022/07/06 09:35:19;;;;;;;4.60;0.98;;;19.50;59.70;;;;;;2372007;56;21081;-75
2022/07/06 09:37:47;;;;;;;2.17;0.93;;;19.50;59.80;;;;;;2372743;56;21067;-75
2022/07/06 09:40:18;;;;;;;1.85;0.70;;;19.50;59.30;;;;;;2372376;56;21194;-75
2022/07/06 09:42:46;;;;;;;1.85;0.80;;;19.50;58.40;;;;;;2372877;56;21067;-74
2022/07/06 09:45:20;;;;;;;3.25;0.93;;;19.60;58.30;;;;;;2372439;56;21594;-75
2022/07/06 09:47:48;;;;;;;1.08;0.50;;;19.70;58.00;;;;;;2372647;56;21107;-75
2022/07/06 09:50:17;;;;;;;3.30;0.62;;;19.70;56.60;;;;;;2372197;56;21066;-74
2022/07/06 09:52:55;;;;;;;1.15;0.47;;;19.70;56.90;;;;;;2372666;56;21042;-75
2022/07/06 09:55:23;;;;;;;3.33;0.95;;;19.70;56.40;;;;;;2372383;56;21573;-75
2022/07/06 09:57:55;;;;;;;2.03;0.60;;;19.70;55.30;;;;;;2372655;56;21051;-75
2022/07/06 10:00:23;;;;;;;1.05;0.50;;;19.70;55.30;;;;;;2372087;56;21688;-76
2022/07/06 10:02:51;;;;;;;1.90;0.85;;;19.70;55.20;;;;;;2372729;56;21031;-75
2022/07/06 10:05:26;;;;;;;1.58;0.47;;;19.70;55.10;;;;;;2372274;56;21596;-76
2022/07/06 10:07:56;;;;;;;2.33;0.43;;;19.50;54.70;;;;;;2372938;56;21039;-76
2022/07/06 10:10:26;;;;;;;0.82;0.50;;;19.50;55.60;;;;;;2372652;56;21127;-75
2022/07/06 10:12:56;;;;;;;2.62;0.60;;;19.40;55.40;;;;;;2372765;56;21058;-75
2022/07/06 10:15:25;;;;;;;0.50;0.40;;;19.40;55.60;;;;;;2371677;56;21079;-75
2022/07/06 10:17:54;;;;;;;1.95;0.50;;;19.50;55.40;;;;;;2373043;56;21043;-75
2022/07/06 10:20:22;;;;;;;1.83;0.60;;;19.50;54.90;;;;;;2372504;56;21074;-75
2022/07/06 10:22:50;;;;;;;2.58;0.60;;;19.50;55.00;;;;;;2475708;54;21651;-73
2022/07/06 10:25:19;;;;;;;2.20;0.60;;;19.40;55.00;;;;;;2302353;58;21078;-73
2022/07/06 10:27:47;;;;;;;1.42;0.45;;;19.40;55.20;;;;;;2303345;58;21081;-73
2022/07/06 10:30:15;;;;;;;2.87;0.60;;;19.40;56.40;;;;;;2301946;58;21122;-73
2022/07/06 10:32:46;;;;;;;1.65;0.50;;;19.40;56.80;;;;;;2301947;58;21122;-73
2022/07/06 10:35:14;;;;;;;2.47;0.62;;;19.40;56.50;;;;;;2301859;58;21529;-73
2022/07/06 10:37:42;;;;;;;3.12;0.85;;;19.50;56.70;;;;;;2301645;58;21565;-73
2022/07/06 10:45:54;;;;;;;1.20;0.60;;;19.60;55.80;;;;;;2336332;57;27724;-73
2022/07/06 10:48:22;;;;;;;3.15;0.57;;;19.60;54.40;;;;;;2347772;57;21105;-73
2022/07/06 10:50:52;;;;;;;3.75;1.17;;;19.60;54.80;;;;;;2622121;52;21130;-73
2022/07/06 10:53:24;;;;;;;1.90;0.80;;;19.60;54.50;;;;;;2375195;56;21813;-73
2022/07/06 10:55:53;;;;;;;2.58;0.73;;;19.60;54.80;;;;;;2375037;56;21042;-73
2022/07/06 10:58:40;;;;;;;2.08;0.35;;;19.70;55.00;;;;;;2375479;56;21561;-73
2022/07/06 11:01:08;;;;;;;2.10;0.70;;;19.70;54.20;;;;;;2628653;52;21114;-73
2022/07/06 11:03:39;;;;;;;3.50;0.80;;;19.80;53.80;;;;;;2375353;56;21102;-73
2022/07/06 11:06:12;;;;;;;2.83;0.60;;;19.80;52.90;;;;;;2628423;52;21616;-73
2022/07/06 11:08:52;;;;;;;1.23;0.50;;;19.80;51.50;;;;;;2375195;56;21131;-73
2022/07/06 11:11:22;;;;;;;3.30;0.68;;;19.80;51.80;;;;;;2374930;56;21047;-73
2022/07/06 11:13:51;;;;;;;1.33;0.60;;;19.80;52.00;;;;;;2375089;56;21609;-75
2022/07/06 11:16:20;;;;;;;2.55;0.75;;;19.80;52.80;;;;;;2374967;56;21087;-73
2022/07/06 11:18:49;;;;;;;1.48;0.40;;;19.80;53.00;;;;;;2375193;56;21524;-73
2022/07/06 11:21:22;;;;;;;1.83;0.45;;;19.90;53.20;;;;;;2375146;56;21115;-73
2022/07/06 11:23:51;;;;;;;3.28;0.70;;;19.90;53.40;;;;;;2374608;56;21058;-73
2022/07/06 11:26:19;;;;;;;1.37;0.50;;;20.00;52.90;;;;;;2374959;56;21544;-73
2022/07/06 11:28:48;;;;;;;3.62;0.77;;;20.10;52.50;;;;;;2375447;56;21584;-73
2022/07/06 11:31:16;;;;;;;1.33;0.60;;;20.20;53.10;;;;;;2374651;56;21126;-73
2022/07/06 11:33:47;;;;;;;2.03;0.65;;;20.40;52.10;;;;;;2375170;56;21667;-73
2022/07/06 11:36:16;;;;;;;5.72;0.80;;;20.50;52.30;;;;;;2374691;56;22113;-73
2022/07/06 11:38:44;;;;;;;3.17;0.60;;;20.70;52.20;;;;;;2375408;56;21103;-73
2022/07/06 11:41:14;;;;;;;4.85;0.90;;;20.80;51.90;;;;;;2374926;56;21581;-73
2022/07/06 11:43:45;;;;;;;1.20;0.40;;;20.80;51.80;;;;;;2375295;56;21046;-73
2022/07/06 11:46:23;;;;;;;2.10;0.60;;;21.00;52.00;;;;;;2374733;56;21055;-73
2022/07/06 11:48:52;;;;;;;2.83;0.70;;;21.20;51.70;;;;;;2375547;56;22220;-73
2022/07/06 11:51:20;;;;;;;1.80;0.70;;;21.30;51.10;;;;;;2375511;56;21035;-73
2022/07/06 11:53:51;;;;;;;5.28;0.70;;;21.50;49.90;;;;;;2375269;56;21046;-73
2022/07/06 11:56:21;;;;;;;4.03;0.82;;;21.50;49.20;;;;;;2374342;56;21605;-73
2022/07/06 11:58:50;;;;;;;2.25;0.60;;;21.60;49.80;;;;;;2373828;56;21043;-73
2022/07/06 12:01:17;;;;;;;2.53;0.77;;;21.70;50.20;;;;;;2373836;56;21066;-73
2022/07/06 12:03:46;;;;;;;6.25;1.10;;;21.90;50.50;;;;;;2374343;56;21102;-73
2022/07/06 12:06:19;;;;;;;4.10;0.90;;;22.00;49.70;;;;;;2373072;56;21094;-73
2022/07/06 12:08:48;;;;;;;1.83;0.73;;;22.00;49.60;;;;;;2374470;56;21031;-73
2022/07/06 12:11:22;;;;;;;5.12;0.80;;;21.90;49.70;;;;;;2374195;56;21118;-73
2022/07/06 12:13:49;;;;;;;;;;;21.80;49.40;;;;;;2377428;56;21122;-73
2022/07/06 12:16:17;;;;;;;3.35;0.70;;;21.80;49.70;;;;;;2373838;56;20061;-73
2022/07/06 12:18:47;;;;;;;4.32;1.33;;;21.60;50.10;;;;;;2374024;56;21119;-73
2022/07/06 12:21:17;;;;;;;4.78;1.00;;;21.50;50.40;;;;;;2627629;52;21509;-73
2022/07/06 12:23:46;;;;;;;4.97;0.70;;;21.50;50.30;;;;;;2373984;56;21099;-73
2022/07/06 12:26:15;;;;;;;1.05;0.60;;;21.40;50.20;;;;;;2374108;56;21035;-73
2022/07/06 12:28:43;;;;;;;4.00;0.60;;;21.30;50.10;;;;;;2627272;52;21529;-73
2022/07/06 12:31:11;;;;;;;4.25;0.57;;;21.30;48.60;;;;;;2374189;56;21035;-73
2022/07/06 12:33:39;;;;;;;2.30;0.50;;;21.20;48.40;;;;;;2374248;56;21555;-73
2022/07/06 12:36:12;;;;;;;4.75;0.60;;;21.20;49.00;;;;;;2373869;56;21035;-73
2022/07/06 12:38:46;;;;;;;3.08;0.65;;;21.10;49.20;;;;;;2374608;56;21039;-72
2022/07/06 12:41:27;;;;;;;4.78;0.93;;;21.10;49.30;;;;;;2374337;56;21122;-73
2022/07/06 12:44:06;;;;;;;3.17;0.95;;;21.00;49.90;;;;;;2373773;56;21054;-73
2022/07/06 12:46:35;;;;;;;3.03;0.75;;;21.00;49.70;;;;;;2373614;56;21098;-73
2022/07/06 12:49:12;;;;;;;2.75;0.68;;;21.00;49.80;;;;;;2374041;56;21063;-73
2022/07/06 12:51:58;;;;;;;1.90;0.43;;;21.10;50.90;;;;;;2374346;56;21074;-73
2022/07/06 12:54:28;;;;;;;2.92;0.60;;;21.20;50.60;;;;;;2373898;56;21110;-72
2022/07/06 12:57:08;;;;;;;3.78;0.73;;;21.40;50.70;;;;;;2373765;56;21529;-72
2022/07/06 12:59:41;;;;;;;3.00;0.50;;;21.60;49.30;;;;;;2373580;56;21047;-72
2022/07/06 13:02:10;;;;;;;3.95;0.68;;;21.70;49.80;;;;;;2374301;56;21102;-72
2022/07/06 13:04:38;;;;;;;3.17;0.80;;;21.70;48.40;;;;;;2373803;56;21775;-72
2022/07/06 13:07:06;;;;;;;4.05;0.62;;;21.60;48.20;;;;;;2373907;56;21043;-72
2022/07/06 13:09:34;;;;;;;1.70;0.50;;;21.60;48.20;;;;;;2627823;52;21532;-72